createdAt,value
2018-12-04T00:00:08.962Z,18.60
2018-12-04T00:05:12.269Z,18.60
2018-12-04T00:10:15.541Z,18.60
2018-12-04T00:15:18.883Z,18.60
2018-12-04T00:20:22.151Z,18.60
2018-12-04T00:25:25.753Z,18.60
2018-12-04T00:30:29.123Z,18.50
2018-12-04T00:35:32.387Z,18.50
2018-12-04T00:40:35.698Z,18.50
2018-12-04T00:45:38.909Z,18.50
2018-12-04T00:50:42.235Z,18.50
2018-12-04T00:55:45.651Z,18.50
2018-12-04T01:00:48.906Z,18.40
2018-12-04T01:05:52.145Z,18.40
2018-12-04T01:10:55.427Z,18.40
2018-12-04T01:15:58.710Z,18.40
2018-12-04T01:21:02.344Z,18.40
2018-12-04T01:26:05.720Z,18.30
2018-12-04T01:31:09.046Z,18.40
2018-12-04T01:36:12.382Z,18.40
2018-12-04T01:41:15.585Z,18.40
2018-12-04T01:46:18.769Z,18.30
2018-12-04T01:51:22.013Z,18.30
2018-12-04T01:56:25.267Z,18.30
2018-12-04T02:01:28.549Z,18.20
2018-12-04T02:06:32.510Z,18.20
2018-12-04T02:11:35.808Z,18.20
2018-12-04T02:16:39.025Z,18.20
2018-12-04T02:21:42.277Z,18.30
2018-12-04T02:26:45.677Z,18.20
2018-12-04T02:31:48.898Z,18.20
2018-12-04T02:36:52.214Z,18.20
2018-12-04T02:41:55.389Z,18.20
2018-12-04T02:46:58.598Z,18.20
2018-12-04T02:52:01.846Z,18.20
2018-12-04T02:57:05.177Z,18.20
2018-12-04T03:02:08.527Z,18.20
2018-12-04T03:07:11.744Z,18.20
2018-12-04T03:12:15.200Z,18.20
2018-12-04T03:17:18.669Z,18.10
2018-12-04T03:22:21.883Z,18.10
2018-12-04T03:27:25.166Z,18.10
2018-12-04T03:32:28.368Z,18.10
2018-12-04T03:37:31.659Z,18.10
2018-12-04T03:42:34.956Z,18.10
2018-12-04T03:47:38.670Z,18.10
2018-12-04T03:52:42.165Z,18.10
2018-12-04T03:57:45.795Z,18.10
2018-12-04T04:02:49.099Z,18.00
2018-12-04T04:07:52.410Z,18.00
2018-12-04T04:12:55.694Z,18.00
2018-12-04T04:17:59.023Z,18.00
2018-12-04T04:23:02.306Z,18.00
2018-12-04T04:28:06.691Z,18.10
2018-12-04T04:33:09.899Z,18.10
2018-12-04T04:38:13.139Z,18.00
2018-12-04T04:43:16.455Z,18.00
2018-12-04T04:48:19.674Z,18.00
2018-12-04T04:53:23.086Z,18.00
2018-12-04T04:58:26.288Z,18.00
2018-12-04T05:03:29.544Z,18.00
2018-12-04T05:08:32.988Z,17.90
2018-12-04T05:13:36.246Z,17.90
2018-12-04T05:18:39.767Z,17.90
2018-12-04T05:23:43.161Z,17.90
2018-12-04T05:28:46.438Z,17.90
2018-12-04T05:33:49.700Z,17.90
2018-12-04T05:38:53.003Z,17.90
2018-12-04T05:43:56.754Z,17.90
2018-12-04T05:49:00.061Z,17.90
2018-12-04T05:54:03.487Z,17.90
2018-12-04T05:59:06.783Z,17.90
2018-12-04T06:04:10.349Z,17.90
2018-12-04T06:09:13.646Z,17.80
2018-12-04T06:14:16.958Z,17.80
2018-12-04T06:19:20.498Z,17.80
2018-12-04T06:24:23.736Z,17.80
2018-12-04T06:29:27.168Z,17.80
2018-12-04T06:34:30.538Z,17.80
2018-12-04T06:39:33.831Z,17.80
2018-12-04T06:44:37.236Z,17.80
2018-12-04T06:49:40.553Z,17.80
2018-12-04T06:54:43.829Z,17.80
2018-12-04T06:59:47.052Z,17.80
2018-12-04T07:04:50.328Z,17.80
2018-12-04T07:09:53.727Z,17.80
2018-12-04T07:14:57.256Z,17.70
2018-12-04T07:20:00.600Z,17.70
2018-12-04T07:25:04.211Z,17.70
2018-12-04T07:30:08.713Z,17.70
2018-12-04T07:35:11.992Z,17.80
2018-12-04T07:40:15.253Z,17.80
2018-12-04T07:45:18.567Z,17.80
2018-12-04T07:50:21.765Z,17.80
2018-12-04T07:55:25.146Z,17.80
2018-12-04T08:00:28.397Z,17.80
2018-12-04T08:05:31.829Z,17.80
2018-12-04T08:10:36.012Z,17.80
2018-12-04T08:15:39.271Z,17.80
2018-12-04T08:20:42.532Z,17.70
2018-12-04T08:25:45.858Z,17.70
2018-12-04T08:30:49.121Z,17.80
2018-12-04T08:35:52.405Z,17.80
2018-12-04T08:40:55.647Z,17.80
2018-12-04T08:45:58.962Z,17.80
2018-12-04T08:51:02.229Z,17.80
2018-12-04T08:56:05.502Z,17.90
2018-12-04T09:01:09.937Z,17.80
2018-12-04T09:06:13.234Z,17.90
2018-12-04T09:11:16.584Z,17.90
2018-12-04T09:16:23.370Z,17.90
2018-12-04T09:21:25.081Z,17.90
2018-12-04T09:26:28.383Z,17.90
2018-12-04T09:31:31.680Z,17.90
2018-12-04T09:36:34.964Z,18.00
2018-12-04T09:41:38.422Z,17.90
2018-12-04T09:46:41.675Z,17.90
2018-12-04T09:51:45.309Z,18.00
2018-12-04T09:56:48.624Z,18.00
2018-12-04T10:01:52.127Z,18.00
2018-12-04T10:06:55.789Z,18.00
2018-12-04T10:11:59.182Z,18.00
2018-12-04T10:17:02.429Z,18.10
2018-12-04T10:22:05.608Z,18.00
2018-12-04T10:27:08.948Z,18.10
2018-12-04T10:32:12.161Z,18.00
2018-12-04T10:37:15.556Z,18.00
2018-12-04T10:42:18.788Z,18.10
2018-12-04T10:47:22.058Z,18.10
2018-12-04T10:52:25.406Z,18.10
2018-12-04T10:57:29.096Z,18.10
2018-12-04T11:02:36.665Z,18.10
2018-12-04T11:07:40.148Z,18.10
2018-12-04T11:12:43.512Z,18.10
2018-12-04T11:17:47.460Z,18.10
2018-12-04T11:22:51.366Z,18.20
2018-12-04T11:27:54.594Z,18.20
2018-12-04T11:32:57.820Z,18.20
2018-12-04T11:38:01.142Z,18.20
2018-12-04T11:43:04.550Z,18.20
2018-12-04T11:48:07.845Z,18.20
2018-12-04T11:53:11.095Z,18.20
2018-12-04T11:58:14.591Z,18.20
2018-12-04T12:03:17.863Z,18.20
2018-12-04T12:08:21.520Z,18.20
2018-12-04T12:13:24.947Z,18.20
2018-12-04T12:18:28.173Z,18.20
2018-12-04T12:23:31.433Z,18.30
2018-12-04T12:28:34.877Z,18.30
2018-12-04T12:33:38.133Z,18.30
2018-12-04T12:38:41.803Z,18.30
2018-12-04T12:43:45.219Z,18.30
2018-12-04T12:48:48.543Z,18.30
2018-12-04T12:53:51.931Z,18.30
2018-12-04T12:58:55.967Z,18.30
2018-12-04T13:03:59.426Z,18.30
2018-12-04T13:09:02.802Z,18.30
2018-12-04T13:14:06.059Z,18.30
2018-12-04T13:19:09.432Z,18.30
2018-12-04T13:24:12.766Z,18.30
2018-12-04T13:29:16.064Z,18.30
2018-12-04T13:34:19.714Z,18.30
2018-12-04T13:39:22.976Z,18.30
2018-12-04T13:44:26.230Z,18.30
2018-12-04T13:49:29.432Z,18.30
2018-12-04T13:54:33.393Z,18.30
2018-12-04T13:59:36.689Z,18.30
2018-12-04T14:04:40.062Z,18.30
2018-12-04T14:09:43.472Z,18.30
2018-12-04T14:14:46.895Z,18.30
2018-12-04T14:19:50.279Z,18.30
2018-12-04T14:24:53.755Z,18.30
2018-12-04T14:29:57.096Z,18.30
2018-12-04T14:35:00.379Z,18.30
2018-12-04T14:40:03.874Z,18.30
2018-12-04T14:45:07.258Z,18.30
2018-12-04T14:50:10.668Z,18.30
2018-12-04T14:55:13.957Z,18.20
2018-12-04T15:00:17.194Z,18.20
2018-12-04T15:05:20.720Z,18.20
2018-12-04T15:10:24.007Z,18.20
2018-12-04T15:15:27.370Z,18.20
2018-12-04T15:20:30.654Z,18.20
2018-12-04T15:25:34.471Z,18.20
2018-12-04T15:30:37.949Z,18.20
2018-12-04T15:35:41.229Z,18.20
2018-12-04T15:40:44.572Z,18.20
2018-12-04T15:45:47.970Z,18.20
2018-12-04T15:50:51.601Z,18.20
2018-12-04T15:55:54.933Z,18.20
2018-12-04T16:00:59.816Z,18.10
2018-12-04T16:06:03.486Z,18.10
2018-12-04T16:11:06.711Z,18.10
2018-12-04T16:16:09.945Z,18.10
2018-12-04T16:21:13.520Z,18.10
2018-12-04T16:26:17.201Z,18.00
2018-12-04T16:31:20.820Z,18.00
2018-12-04T16:36:24.333Z,18.00
2018-12-04T16:41:28.055Z,18.00
2018-12-04T16:46:31.490Z,18.00
2018-12-04T16:51:34.811Z,18.00
2018-12-04T16:56:38.883Z,18.00
2018-12-04T17:01:42.110Z,17.90
2018-12-04T17:06:45.384Z,17.90
2018-12-04T17:11:50.612Z,17.90
2018-12-04T17:16:54.017Z,17.90
2018-12-04T17:21:57.283Z,17.90
2018-12-04T17:27:00.679Z,17.90
2018-12-04T17:32:04.349Z,17.90
2018-12-04T17:37:07.576Z,17.90
2018-12-04T17:42:10.840Z,17.90
2018-12-04T17:47:15.230Z,17.80
2018-12-04T17:52:20.090Z,17.80
2018-12-04T17:57:23.326Z,17.80
2018-12-04T18:02:26.590Z,17.80
2018-12-04T18:07:29.977Z,17.80
2018-12-04T18:12:33.291Z,17.80
2018-12-04T18:17:36.557Z,17.80
2018-12-04T18:22:39.911Z,17.80
2018-12-04T18:27:43.224Z,17.70
2018-12-04T18:32:46.445Z,17.70
2018-12-04T18:37:49.681Z,17.70
2018-12-04T18:42:52.878Z,17.70
2018-12-04T18:47:56.245Z,17.70
2018-12-04T18:52:59.487Z,17.70
2018-12-04T18:58:02.876Z,17.70
2018-12-04T19:03:06.623Z,17.60
2018-12-04T19:08:09.927Z,17.60
2018-12-04T19:13:13.249Z,17.60
2018-12-04T19:18:16.651Z,17.60
2018-12-04T19:23:19.994Z,17.60
2018-12-04T19:28:23.308Z,17.60
2018-12-04T19:33:26.664Z,17.60
2018-12-04T19:38:30.083Z,17.50
2018-12-04T19:43:33.401Z,17.50
2018-12-04T19:48:36.731Z,17.50
2018-12-04T19:53:40.317Z,17.50
2018-12-04T19:58:44.089Z,17.50
2018-12-04T20:03:47.563Z,17.50
2018-12-04T20:08:53.395Z,17.40
2018-12-04T20:13:56.790Z,17.40
2018-12-04T20:19:00.220Z,17.40
2018-12-04T20:24:03.561Z,17.40
2018-12-04T20:29:07.357Z,17.40
2018-12-04T20:34:10.926Z,17.40
2018-12-04T20:39:14.379Z,17.40
2018-12-04T20:44:17.789Z,17.40
2018-12-04T20:49:21.785Z,17.40
2018-12-04T20:54:25.229Z,17.30
2018-12-04T20:59:28.745Z,17.30
2018-12-04T21:04:32.095Z,17.30
2018-12-04T21:09:35.770Z,17.30
2018-12-04T21:14:39.266Z,17.30
2018-12-04T21:19:42.609Z,17.30
2018-12-04T21:24:45.986Z,17.30
2018-12-04T21:29:54.664Z,17.20
2018-12-04T21:35:03.409Z,17.20
2018-12-04T21:40:12.070Z,17.20
2018-12-04T21:45:20.828Z,17.20
2018-12-04T21:50:24.299Z,17.20
2018-12-04T21:55:27.808Z,17.20
2018-12-04T22:00:31.094Z,17.20
2018-12-04T22:05:34.462Z,17.10
2018-12-04T22:10:37.694Z,17.10
2018-12-04T22:15:40.912Z,17.10
2018-12-04T22:20:44.307Z,17.10
2018-12-04T22:25:47.893Z,17.10
2018-12-04T22:30:51.118Z,17.10
2018-12-04T22:35:54.778Z,17.10
2018-12-04T22:40:58.000Z,17.10
2018-12-04T22:46:01.259Z,17.10
2018-12-04T22:51:04.924Z,17.10
2018-12-04T22:56:08.359Z,17.10
2018-12-04T23:01:11.625Z,17.10
2018-12-04T23:06:14.918Z,17.20
2018-12-04T23:11:18.295Z,17.10
2018-12-04T23:16:21.521Z,17.10
2018-12-04T23:21:24.833Z,17.10
2018-12-04T23:26:28.454Z,17.10
2018-12-04T23:31:31.958Z,17.10
2018-12-04T23:36:35.169Z,17.10
2018-12-04T23:41:38.378Z,17.10
2018-12-04T23:46:41.659Z,17.10
2018-12-04T23:51:45.155Z,17.00
2018-12-04T23:56:48.322Z,17.00
